createdAt,value
2023-05-06T00:00:00.175Z,97.94
2023-05-06T00:01:00.140Z,97.94
2023-05-06T00:02:00.109Z,97.83
2023-05-06T00:03:00.137Z,97.73
2023-05-06T00:04:00.286Z,97.73
2023-05-06T00:05:00.052Z,97.63
2023-05-06T00:06:00.032Z,97.53
2023-05-06T00:07:00.001Z,97.53
2023-05-06T00:08:00.040Z,97.53
2023-05-06T00:08:59.974Z,97.53
2023-05-06T00:09:59.991Z,97.53
2023-05-06T00:10:59.943Z,97.63
2023-05-06T00:11:59.978Z,97.73
2023-05-06T00:12:59.974Z,97.63
2023-05-06T00:13:59.926Z,97.63
2023-05-06T00:14:59.933Z,97.63
2023-05-06T00:15:59.916Z,97.43
2023-05-06T00:16:59.857Z,97.33
2023-05-06T00:17:59.881Z,97.43
2023-05-06T00:18:59.831Z,97.43
2023-05-06T00:19:59.866Z,97.43
2023-05-06T00:20:59.810Z,97.23
2023-05-06T00:21:59.833Z,97.33
2023-05-06T00:22:59.789Z,97.33
2023-05-06T00:23:59.802Z,97.33
2023-05-06T00:24:59.765Z,97.23
2023-05-06T00:25:59.768Z,97.33
2023-05-06T00:26:59.764Z,97.47
2023-05-06T00:27:59.753Z,97.58
2023-05-06T00:28:59.722Z,97.58
2023-05-06T00:29:59.725Z,97.53
2023-05-06T00:30:59.681Z,97.53
2023-05-06T00:31:59.787Z,97.63
2023-05-06T00:32:59.715Z,97.53
2023-05-06T00:33:59.697Z,97.43
2023-05-06T00:34:59.649Z,97.43
2023-05-06T00:35:59.640Z,97.27
2023-05-06T00:36:59.622Z,97.17
2023-05-06T00:37:59.608Z,97.07
2023-05-06T00:38:59.598Z,97.27
2023-05-06T00:39:59.584Z,97.27
2023-05-06T00:40:59.552Z,97.38
2023-05-06T00:41:59.572Z,97.38
2023-05-06T00:42:59.509Z,97.17
2023-05-06T00:43:59.558Z,97.07
2023-05-06T00:44:59.485Z,96.97
2023-05-06T00:45:59.558Z,96.97
2023-05-06T00:46:59.488Z,97.07
2023-05-06T00:47:59.529Z,96.97
2023-05-06T00:48:59.506Z,96.87
2023-05-06T00:49:59.476Z,96.91
2023-05-06T00:50:59.421Z,97.02
2023-05-06T00:51:59.418Z,97.32
2023-05-06T00:52:59.455Z,97.52
2023-05-06T00:53:59.430Z,97.62
2023-05-06T00:54:59.380Z,97.52
2023-05-06T00:55:59.387Z,97.22
2023-05-06T00:56:59.361Z,97.22
2023-05-06T00:57:59.344Z,97.42
2023-05-06T00:58:59.372Z,97.56
2023-05-06T00:59:59.328Z,97.56
2023-05-06T01:00:59.277Z,97.67
2023-05-06T01:01:59.316Z,97.87
2023-05-06T01:02:59.443Z,97.97
2023-05-06T01:03:59.430Z,97.87
2023-05-06T01:04:59.290Z,97.97
2023-05-06T01:05:59.244Z,97.97
2023-05-06T01:06:59.216Z,97.97
2023-05-06T01:07:59.233Z,98.07
2023-05-06T01:08:59.176Z,98.07
2023-05-06T01:09:59.228Z,98.18
2023-05-06T01:10:59.159Z,98.18
2023-05-06T01:11:59.176Z,98.18
2023-05-06T01:12:59.182Z,98.07
2023-05-06T01:13:59.132Z,98.07
2023-05-06T01:14:59.109Z,98.07
2023-05-06T01:15:59.148Z,98.07
2023-05-06T01:16:59.135Z,98.07
2023-05-06T01:17:59.123Z,98.07
2023-05-06T01:18:59.048Z,98.07
2023-05-06T01:19:59.110Z,97.97
2023-05-06T01:20:59.050Z,97.87
2023-05-06T01:21:59.055Z,97.77
2023-05-06T01:22:59.014Z,97.81
2023-05-06T01:23:59.039Z,97.81
2023-05-06T01:24:58.973Z,97.92
2023-05-06T01:25:59.026Z,98.02
2023-05-06T01:26:58.965Z,98.02
2023-05-06T01:27:58.964Z,98.12
2023-05-06T01:28:58.952Z,98.22
2023-05-06T01:29:58.938Z,98.22
2023-05-06T01:30:58.925Z,98.22
2023-05-06T01:31:58.907Z,98.22
2023-05-06T01:32:58.909Z,98.12
2023-05-06T01:33:58.897Z,98.07
2023-05-06T01:34:58.844Z,98.27
2023-05-06T01:35:58.849Z,98.37
2023-05-06T01:36:58.841Z,98.37
2023-05-06T01:37:58.814Z,98.57
2023-05-06T01:38:58.802Z,98.68
2023-05-06T01:39:58.806Z,98.77
2023-05-06T01:40:58.774Z,98.88
2023-05-06T01:41:58.798Z,98.88
2023-05-06T01:42:58.742Z,98.88
2023-05-06T01:43:58.752Z,98.88
2023-05-06T01:44:58.711Z,98.77
2023-05-06T01:45:58.768Z,98.88
2023-05-06T01:46:58.813Z,98.97
2023-05-06T01:47:58.718Z,98.97
2023-05-06T01:48:58.677Z,98.97
2023-05-06T01:49:58.686Z,99.13
2023-05-06T01:50:58.642Z,99.02
2023-05-06T01:51:58.661Z,99.02
2023-05-06T01:52:58.633Z,99.13
2023-05-06T01:53:58.643Z,99.22
2023-05-06T01:54:58.584Z,99.43
2023-05-06T01:55:58.598Z,99.43
2023-05-06T01:56:58.589Z,99.43
2023-05-06T01:57:58.564Z,99.63
2023-05-06T01:58:59.523Z,99.53
2023-05-06T01:59:58.511Z,99.63
2023-05-06T02:00:58.523Z,99.63
2023-05-06T02:01:58.550Z,99.63
2023-05-06T02:02:58.551Z,99.74
2023-05-06T02:03:58.517Z,99.63
2023-05-06T02:04:58.498Z,99.74
2023-05-06T02:05:58.449Z,99.74
2023-05-06T02:06:58.476Z,99.84
2023-05-06T02:07:58.475Z,99.84
2023-05-06T02:08:58.452Z,99.84
2023-05-06T02:09:58.447Z,99.84
2023-05-06T02:10:58.401Z,99.63
2023-05-06T02:11:58.351Z,99.43
2023-05-06T02:12:58.414Z,99.33
2023-05-06T02:13:58.363Z,99.33
2023-05-06T02:14:58.337Z,99.38
2023-05-06T02:15:58.323Z,99.27
2023-05-06T02:16:58.308Z,99.17
2023-05-06T02:17:58.322Z,99.07
2023-05-06T02:18:58.309Z,99.17
2023-05-06T02:19:58.293Z,99.07
2023-05-06T02:20:58.283Z,98.86
2023-05-06T02:21:58.243Z,98.77
2023-05-06T02:22:58.238Z,98.77
2023-05-06T02:23:58.183Z,98.77
2023-05-06T02:24:58.213Z,98.81
2023-05-06T02:25:58.200Z,98.81
2023-05-06T02:26:58.182Z,98.91
2023-05-06T02:27:58.135Z,98.91
2023-05-06T02:28:58.166Z,99.02
2023-05-06T02:29:58.118Z,99.02
2023-05-06T02:30:58.169Z,99.11
2023-05-06T02:31:58.183Z,99.11
2023-05-06T02:32:58.142Z,99.02
2023-05-06T02:33:58.062Z,99.11
2023-05-06T02:34:58.083Z,99.02
2023-05-06T02:35:58.078Z,98.91
2023-05-06T02:36:58.037Z,98.91
2023-05-06T02:37:58.007Z,98.81
2023-05-06T02:38:58.051Z,98.81
2023-05-06T02:39:58.062Z,98.81
2023-05-06T02:40:58.016Z,98.91
2023-05-06T02:41:57.958Z,98.91
2023-05-06T02:42:58.042Z,98.91
2023-05-06T02:43:57.932Z,98.91
2023-05-06T02:44:57.983Z,98.91
2023-05-06T02:45:57.962Z,99.11
2023-05-06T02:46:57.943Z,99.32
2023-05-06T02:47:57.929Z,99.32
2023-05-06T02:48:57.905Z,99.22
2023-05-06T02:49:57.855Z,99.22
2023-05-06T02:50:57.866Z,99.02
2023-05-06T02:51:57.851Z,98.91
2023-05-06T02:52:57.822Z,98.91
2023-05-06T02:53:57.798Z,98.91
2023-05-06T02:54:57.807Z,99.02
2023-05-06T02:55:57.887Z,99.06
2023-05-06T02:56:57.802Z,98.96
2023-05-06T02:57:57.752Z,99.06
2023-05-06T02:58:57.751Z,99.16
2023-05-06T02:59:57.722Z,99.11
2023-05-06T03:00:57.761Z,98.91
2023-05-06T03:01:57.706Z,98.80
2023-05-06T03:02:57.780Z,98.85
2023-05-06T03:03:57.696Z,98.95
2023-05-06T03:04:57.690Z,99.26
2023-05-06T03:05:57.630Z,99.46
2023-05-06T03:06:57.671Z,99.77
2023-05-06T03:07:57.613Z,99.92
2023-05-06T03:08:57.630Z,99.99
2023-05-06T03:09:57.583Z,99.99
2023-05-06T03:10:57.615Z,99.99
2023-05-06T03:11:57.562Z,99.99
2023-05-06T03:12:57.602Z,99.92
2023-05-06T03:13:57.557Z,99.62
2023-05-06T03:14:57.561Z,99.31
2023-05-06T03:15:57.502Z,99.31
2023-05-06T03:16:57.674Z,99.16
2023-05-06T03:17:57.543Z,99.05
2023-05-06T03:18:57.480Z,99.10
2023-05-06T03:19:57.467Z,99.41
2023-05-06T03:20:57.500Z,99.61
2023-05-06T03:21:57.445Z,99.91
2023-05-06T03:22:57.423Z,99.99
2023-05-06T03:23:57.443Z,99.91
2023-05-06T03:24:57.403Z,99.99
2023-05-06T03:25:57.360Z,99.99
2023-05-06T03:26:57.403Z,99.99
2023-05-06T03:27:57.364Z,99.99
2023-05-06T03:28:57.439Z,99.99
2023-05-06T03:29:57.328Z,99.99
2023-05-06T03:30:57.348Z,99.99
2023-05-06T03:31:57.319Z,99.99
2023-05-06T03:32:57.362Z,99.99
2023-05-06T03:33:57.277Z,99.99
2023-05-06T03:34:57.318Z,99.99
2023-05-06T03:35:57.236Z,99.99
2023-05-06T03:36:57.252Z,99.99
2023-05-06T03:37:57.222Z,99.99
2023-05-06T03:38:57.218Z,99.77
2023-05-06T03:39:57.212Z,99.36
2023-05-06T03:40:57.260Z,99.16
2023-05-06T03:41:57.166Z,99.01
2023-05-06T03:42:57.179Z,98.80
2023-05-06T03:43:57.160Z,98.70
2023-05-06T03:44:57.172Z,98.50
2023-05-06T03:45:57.132Z,98.39
2023-05-06T03:46:57.162Z,98.24
2023-05-06T03:47:58.451Z,98.19
2023-05-06T03:48:57.118Z,98.34
2023-05-06T03:49:57.056Z,98.44
2023-05-06T03:50:57.067Z,98.54
2023-05-06T03:51:57.034Z,98.75
2023-05-06T03:52:57.058Z,98.75
2023-05-06T03:53:57.000Z,98.54
2023-05-06T03:54:57.042Z,98.28
2023-05-06T03:55:56.988Z,98.08
2023-05-06T03:56:57.003Z,97.92
2023-05-06T03:57:56.954Z,97.77
2023-05-06T03:58:57.015Z,97.77
2023-05-06T03:59:56.931Z,97.91
2023-05-06T04:00:56.927Z,98.32
2023-05-06T04:01:56.925Z,98.63
2023-05-06T04:02:56.974Z,98.83
2023-05-06T04:03:56.906Z,99.04
2023-05-06T04:04:56.869Z,99.09
2023-05-06T04:05:56.916Z,99.29
2023-05-06T04:06:56.886Z,99.50
2023-05-06T04:07:56.809Z,99.60
2023-05-06T04:08:56.831Z,99.70
2023-05-06T04:09:56.816Z,99.76
2023-05-06T04:10:56.850Z,99.66
2023-05-06T04:11:56.750Z,99.55
2023-05-06T04:12:56.781Z,99.45
2023-05-06T04:13:56.761Z,99.25
2023-05-06T04:14:56.769Z,99.15
2023-05-06T04:15:56.728Z,99.25
2023-05-06T04:16:56.716Z,99.25
2023-05-06T04:17:56.721Z,99.15
2023-05-06T04:18:56.743Z,98.99
2023-05-06T04:19:56.665Z,98.89
2023-05-06T04:20:56.698Z,98.99
2023-05-06T04:21:56.638Z,99.09
2023-05-06T04:22:56.652Z,99.09
2023-05-06T04:23:56.621Z,99.29
2023-05-06T04:24:56.635Z,99.40
2023-05-06T04:25:56.585Z,99.45
2023-05-06T04:26:56.573Z,99.35
2023-05-06T04:27:56.548Z,99.25
2023-05-06T04:28:56.564Z,99.15
2023-05-06T04:29:56.549Z,99.04
2023-05-06T04:30:56.528Z,99.04
2023-05-06T04:31:56.524Z,99.15
2023-05-06T04:32:56.579Z,99.25
2023-05-06T04:33:56.468Z,99.35
2023-05-06T04:34:56.495Z,99.35
2023-05-06T04:35:56.436Z,99.35
2023-05-06T04:36:56.468Z,99.35
2023-05-06T04:37:56.411Z,99.20
2023-05-06T04:38:56.438Z,99.25
2023-05-06T04:39:56.413Z,99.20
2023-05-06T04:40:56.402Z,99.30
2023-05-06T04:41:56.373Z,99.30
2023-05-06T04:42:56.442Z,99.20
2023-05-06T04:43:56.336Z,99.10
2023-05-06T04:44:56.346Z,99.30
2023-05-06T04:45:56.388Z,99.41
2023-05-06T04:46:56.313Z,99.41
2023-05-06T04:47:56.382Z,99.30
2023-05-06T04:48:56.291Z,99.41
2023-05-06T04:49:56.251Z,99.41
2023-05-06T04:50:56.290Z,99.51
2023-05-06T04:51:56.256Z,99.61
2023-05-06T04:52:56.234Z,99.91
2023-05-06T04:53:56.208Z,99.81
2023-05-06T04:54:56.232Z,99.99
2023-05-06T04:55:56.189Z,99.99
2023-05-06T04:56:56.187Z,99.99
2023-05-06T04:57:56.237Z,99.99
2023-05-06T04:58:56.162Z,99.99
2023-05-06T04:59:56.119Z,99.99
2023-05-06T05:00:56.238Z,99.99
2023-05-06T05:01:56.145Z,99.99
2023-05-06T05:02:56.168Z,99.99
2023-05-06T05:03:56.138Z,99.99
2023-05-06T05:04:56.108Z,99.99
2023-05-06T05:05:56.025Z,99.99
2023-05-06T05:06:56.066Z,99.99
2023-05-06T05:07:56.045Z,99.99
2023-05-06T05:08:56.294Z,99.99
2023-05-06T05:09:55.983Z,99.99
2023-05-06T05:10:56.034Z,99.99
2023-05-06T05:11:55.973Z,99.99
2023-05-06T05:12:55.991Z,99.92
2023-05-06T05:13:57.381Z,99.92
2023-05-06T05:14:55.980Z,99.92
2023-05-06T05:15:55.919Z,99.99
2023-05-06T05:16:56.062Z,99.98
2023-05-06T05:17:55.921Z,99.98
2023-05-06T05:18:55.910Z,99.98
2023-05-06T05:19:55.889Z,99.98
2023-05-06T05:20:55.884Z,99.98
2023-05-06T05:21:55.830Z,99.98
2023-05-06T05:22:55.853Z,99.99
2023-05-06T05:23:55.812Z,99.99
2023-05-06T05:24:55.846Z,99.99
2023-05-06T05:25:55.774Z,99.99
2023-05-06T05:26:55.792Z,99.99
2023-05-06T05:27:55.756Z,99.99
2023-05-06T05:28:55.778Z,99.99
2023-05-06T05:29:55.752Z,99.99
2023-05-06T05:30:55.775Z,99.99
2023-05-06T05:31:55.711Z,99.99
2023-05-06T05:32:55.809Z,99.99
2023-05-06T05:33:55.717Z,99.99
2023-05-06T05:34:55.719Z,99.99
2023-05-06T05:35:55.667Z,99.99
2023-05-06T05:36:55.684Z,99.99
2023-05-06T05:37:55.627Z,99.99
2023-05-06T05:38:55.635Z,99.99
2023-05-06T05:39:55.612Z,99.99
2023-05-06T05:40:55.601Z,99.99
2023-05-06T05:41:55.586Z,99.99
2023-05-06T05:42:55.600Z,99.99
2023-05-06T05:43:55.549Z,99.99
2023-05-06T05:44:55.612Z,99.99
2023-05-06T05:45:55.543Z,99.99
2023-05-06T05:46:55.535Z,99.99
2023-05-06T05:47:55.555Z,99.99
2023-05-06T05:48:55.501Z,99.99
2023-05-06T05:49:55.496Z,99.99
2023-05-06T05:50:55.507Z,99.99
2023-05-06T05:51:55.445Z,99.99
2023-05-06T05:52:55.448Z,99.99
2023-05-06T05:53:55.431Z,99.99
2023-05-06T05:54:55.411Z,99.99
2023-05-06T05:55:55.376Z,99.99
2023-05-06T05:56:55.384Z,99.99
2023-05-06T05:57:55.395Z,99.99
2023-05-06T05:58:55.374Z,99.99
2023-05-06T05:59:55.342Z,99.99
2023-05-06T06:00:55.340Z,99.99
2023-05-06T06:01:55.929Z,99.99
2023-05-06T06:02:57.932Z,99.99
2023-05-06T06:03:55.373Z,99.99
2023-05-06T06:04:55.360Z,99.99
2023-05-06T06:05:55.315Z,99.99
2023-05-06T06:06:55.245Z,99.99
2023-05-06T06:07:55.213Z,99.99
2023-05-06T06:08:55.252Z,99.99
2023-05-06T06:09:55.191Z,99.99
2023-05-06T06:10:55.207Z,99.99
2023-05-06T06:11:57.352Z,99.99
2023-05-06T06:12:55.160Z,99.99
2023-05-06T06:13:55.202Z,99.99
2023-05-06T06:14:55.123Z,99.99
2023-05-06T06:15:55.165Z,99.99
2023-05-06T06:16:55.116Z,99.99
2023-05-06T06:17:55.177Z,99.99
2023-05-06T06:18:55.081Z,99.99
2023-05-06T06:19:55.141Z,99.99
2023-05-06T06:20:55.374Z,99.99
2023-05-06T06:21:55.058Z,99.99
2023-05-06T06:22:55.027Z,99.99
2023-05-06T06:23:55.052Z,99.99
2023-05-06T06:24:54.991Z,99.99
2023-05-06T06:25:55.003Z,99.99
2023-05-06T06:26:54.969Z,99.99
2023-05-06T06:27:54.968Z,99.99
2023-05-06T06:28:54.956Z,99.99
2023-05-06T06:29:54.959Z,99.99
2023-05-06T06:30:54.937Z,99.99
2023-05-06T06:31:54.980Z,99.99
2023-05-06T06:32:54.966Z,99.99
2023-05-06T06:33:54.916Z,99.99
2023-05-06T06:34:54.878Z,99.99
2023-05-06T06:35:54.910Z,99.99
2023-05-06T06:36:54.835Z,99.99
2023-05-06T06:37:54.892Z,99.99
2023-05-06T06:38:54.825Z,99.99
2023-05-06T06:39:54.835Z,99.99
2023-05-06T06:40:54.805Z,99.99
2023-05-06T06:41:54.839Z,99.99
2023-05-06T06:42:54.765Z,99.99
2023-05-06T06:43:54.765Z,99.99
2023-05-06T06:44:54.722Z,99.99
2023-05-06T06:45:54.784Z,99.99
2023-05-06T06:46:54.713Z,99.99
2023-05-06T06:47:54.810Z,99.99
2023-05-06T06:48:54.683Z,99.99
2023-05-06T06:49:54.686Z,99.99
2023-05-06T06:50:54.649Z,99.69
2023-05-06T06:51:54.660Z,99.69
2023-05-06T06:52:54.651Z,99.85
2023-05-06T06:53:54.667Z,99.95
2023-05-06T06:54:54.598Z,99.75
2023-05-06T06:55:54.632Z,99.55
2023-05-06T06:56:56.384Z,99.55
2023-05-06T06:57:54.619Z,99.14
2023-05-06T06:58:54.549Z,98.94
2023-05-06T06:59:54.570Z,99.04
2023-05-06T07:00:54.570Z,98.94
2023-05-06T07:01:54.536Z,98.74
2023-05-06T07:02:54.568Z,98.63
2023-05-06T07:03:54.536Z,98.59
2023-05-06T07:04:54.490Z,98.69
2023-05-06T07:05:54.479Z,98.90
2023-05-06T07:06:54.446Z,99.10
2023-05-06T07:07:54.459Z,98.90
2023-05-06T07:08:54.464Z,98.49
2023-05-06T07:09:54.420Z,98.18
2023-05-06T07:10:54.385Z,98.08
2023-05-06T07:11:54.407Z,98.28
2023-05-06T07:12:54.475Z,98.59
2023-05-06T07:13:55.288Z,98.54
2023-05-06T07:14:54.369Z,98.34
2023-05-06T07:15:54.353Z,98.24
2023-05-06T07:16:54.331Z,97.83
2023-05-06T07:17:54.325Z,97.83
2023-05-06T07:18:54.298Z,97.83
2023-05-06T07:19:54.309Z,97.83
2023-05-06T07:20:54.249Z,97.73
2023-05-06T07:21:54.284Z,97.73
2023-05-06T07:22:54.667Z,97.49
2023-05-06T07:23:54.254Z,97.49
2023-05-06T07:24:54.242Z,97.34
2023-05-06T07:25:54.221Z,96.33
2023-05-06T07:26:54.195Z,95.72
2023-05-06T07:27:54.207Z,95.17
2023-05-06T07:28:54.169Z,95.17
2023-05-06T07:29:54.174Z,94.92
2023-05-06T07:30:54.189Z,94.92
2023-05-06T07:31:54.453Z,93.87
2023-05-06T07:32:54.192Z,91.74
2023-05-06T07:33:54.127Z,91.03
2023-05-06T07:34:54.083Z,91.30
2023-05-06T07:35:54.111Z,91.70
2023-05-06T07:36:54.048Z,91.66
2023-05-06T07:37:54.065Z,91.21
2023-05-06T07:38:54.032Z,89.79
2023-05-06T07:39:54.072Z,89.79
2023-05-06T07:40:54.108Z,89.86
2023-05-06T07:41:54.010Z,89.35
2023-05-06T07:42:53.965Z,88.45
2023-05-06T07:43:53.973Z,87.88
2023-05-06T07:44:53.962Z,88.08
2023-05-06T07:45:53.980Z,88.45
2023-05-06T07:46:53.977Z,88.75
2023-05-06T07:47:54.065Z,89.95
2023-05-06T07:48:53.904Z,88.90
2023-05-06T07:49:53.932Z,87.70
2023-05-06T07:50:53.860Z,87.65
2023-05-06T07:51:53.889Z,86.75
2023-05-06T07:52:53.846Z,86.21
2023-05-06T07:53:53.874Z,86.30
2023-05-06T07:54:53.824Z,85.60
2023-05-06T07:55:53.831Z,85.00
2023-05-06T07:56:53.780Z,84.29
2023-05-06T07:57:53.785Z,84.05
2023-05-06T07:58:53.781Z,82.54
2023-05-06T07:59:53.775Z,84.09
2023-05-06T08:00:53.748Z,85.10
2023-05-06T08:01:53.731Z,85.90
2023-05-06T08:02:53.758Z,86.91
2023-05-06T08:03:53.769Z,86.10
2023-05-06T08:04:53.798Z,85.94
2023-05-06T08:05:53.799Z,86.81
2023-05-06T08:06:53.656Z,84.53
2023-05-06T08:07:53.675Z,85.74
2023-05-06T08:08:53.630Z,84.03
2023-05-06T08:09:53.640Z,83.89
2023-05-06T08:10:53.624Z,84.25
2023-05-06T08:11:53.617Z,84.11
2023-05-06T08:12:53.675Z,82.70
2023-05-06T08:13:53.586Z,82.56
2023-05-06T08:14:53.552Z,83.67
2023-05-06T08:15:53.901Z,83.17
2023-05-06T08:16:55.748Z,82.56
2023-05-06T08:17:53.563Z,82.46
2023-05-06T08:18:53.517Z,82.52
2023-05-06T08:19:53.509Z,80.31
2023-05-06T08:20:53.473Z,79.97
2023-05-06T08:21:53.494Z,79.61
2023-05-06T08:22:53.483Z,80.51
2023-05-06T08:23:53.451Z,80.61
2023-05-06T08:24:53.426Z,80.61
2023-05-06T08:25:55.750Z,81.05
2023-05-06T08:26:53.393Z,81.96
2023-05-06T08:27:53.436Z,79.99
2023-05-06T08:28:53.373Z,80.58
2023-05-06T08:29:53.367Z,81.90
2023-05-06T08:30:53.356Z,81.59
2023-05-06T08:31:53.503Z,81.79
2023-05-06T08:32:53.394Z,80.99
2023-05-06T08:33:54.734Z,80.39
2023-05-06T08:34:53.306Z,80.25
2023-05-06T08:35:53.304Z,79.74
2023-05-06T08:36:53.290Z,79.74
2023-05-06T08:37:53.272Z,79.64
2023-05-06T08:38:53.258Z,78.44
2023-05-06T08:39:53.268Z,78.74
2023-05-06T08:40:53.204Z,78.44
2023-05-06T08:41:53.230Z,77.94
2023-05-06T08:42:53.203Z,77.43
2023-05-06T08:43:53.207Z,76.63
2023-05-06T08:44:53.160Z,77.23
2023-05-06T08:45:53.181Z,76.23
2023-05-06T08:46:53.131Z,75.22
2023-05-06T08:47:53.160Z,75.82
2023-05-06T08:48:53.101Z,75.42
2023-05-06T08:49:53.140Z,77.03
2023-05-06T08:50:53.092Z,77.83
2023-05-06T08:51:53.083Z,77.03
2023-05-06T08:52:53.052Z,76.53
2023-05-06T08:53:53.079Z,78.54
2023-05-06T08:54:53.066Z,77.94
2023-05-06T08:55:53.034Z,76.49
2023-05-06T08:56:53.018Z,76.39
2023-05-06T08:57:53.015Z,78.50
2023-05-06T08:58:52.991Z,75.15
2023-05-06T08:59:53.002Z,73.44
2023-05-06T09:00:52.979Z,70.63
2023-05-06T09:01:52.984Z,68.02
2023-05-06T09:02:53.023Z,69.76
2023-05-06T09:03:53.029Z,70.06
2023-05-06T09:04:52.920Z,73.47
2023-05-06T09:05:52.908Z,73.78
2023-05-06T09:06:52.882Z,73.58
2023-05-06T09:07:52.895Z,71.97
2023-05-06T09:08:52.838Z,72.44
2023-05-06T09:09:53.157Z,73.24
2023-05-06T09:10:52.856Z,72.13
2023-05-06T09:11:52.834Z,70.93
2023-05-06T09:12:52.870Z,71.73
2023-05-06T09:13:52.794Z,72.53
2023-05-06T09:14:52.751Z,72.24
2023-05-06T09:15:52.793Z,72.13
2023-05-06T09:16:52.875Z,72.64
2023-05-06T09:17:52.801Z,73.74
2023-05-06T09:18:52.788Z,72.84
2023-05-06T09:19:52.717Z,72.94
2023-05-06T09:20:52.720Z,73.64
2023-05-06T09:21:52.707Z,74.65
2023-05-06T09:22:52.660Z,74.11
2023-05-06T09:23:52.665Z,72.90
2023-05-06T09:24:52.655Z,72.30
2023-05-06T09:25:52.644Z,70.89
2023-05-06T09:26:52.636Z,71.00
2023-05-06T09:27:52.618Z,71.20
2023-05-06T09:28:52.570Z,73.04
2023-05-06T09:29:52.582Z,71.43
2023-05-06T09:30:52.623Z,70.73
2023-05-06T09:31:52.576Z,71.03
2023-05-06T09:32:52.548Z,71.43
2023-05-06T09:33:52.544Z,71.53
2023-05-06T09:34:52.502Z,72.24
2023-05-06T09:35:52.523Z,71.94
2023-05-06T09:36:52.522Z,70.83
2023-05-06T09:37:52.482Z,73.21
2023-05-06T09:38:52.454Z,72.80
2023-05-06T09:39:52.455Z,72.06
2023-05-06T09:40:52.451Z,69.46
2023-05-06T09:41:52.456Z,69.35
2023-05-06T09:42:52.394Z,69.92
2023-05-06T09:43:52.427Z,68.59
2023-05-06T09:44:52.383Z,67.88
2023-05-06T09:45:52.470Z,68.85
2023-05-06T09:46:52.381Z,67.35
2023-05-06T09:47:52.359Z,67.25
2023-05-06T09:48:52.364Z,67.08
2023-05-06T09:49:52.346Z,67.49
2023-05-06T09:50:52.299Z,67.58
2023-05-06T09:51:52.324Z,67.32
2023-05-06T09:52:52.285Z,66.31
2023-05-06T09:53:52.275Z,67.42
2023-05-06T09:54:52.270Z,68.49
2023-05-06T09:55:52.250Z,67.49
2023-05-06T09:56:52.218Z,68.05
2023-05-06T09:57:52.254Z,64.84
2023-05-06T09:58:52.196Z,66.15
2023-05-06T09:59:52.257Z,66.35
2023-05-06T10:00:52.197Z,67.35
2023-05-06T10:01:52.205Z,66.95
2023-05-06T10:02:52.290Z,68.85
2023-05-06T10:03:52.276Z,69.02
2023-05-06T10:04:52.419Z,68.29
2023-05-06T10:05:52.113Z,66.78
2023-05-06T10:06:52.131Z,66.96
2023-05-06T10:07:52.131Z,64.55
2023-05-06T10:08:52.075Z,65.59
2023-05-06T10:09:52.089Z,66.78
2023-05-06T10:10:52.032Z,66.16
2023-05-06T10:11:52.063Z,67.36
2023-05-06T10:12:52.075Z,67.16
2023-05-06T10:13:52.028Z,65.62
2023-05-06T10:14:51.998Z,64.32
2023-05-06T10:15:52.040Z,65.29
2023-05-06T10:16:51.980Z,63.86
2023-05-06T10:17:51.984Z,63.76
2023-05-06T10:18:51.936Z,62.39
2023-05-06T10:19:51.959Z,63.62
2023-05-06T10:20:51.911Z,63.32
2023-05-06T10:21:51.943Z,65.45
2023-05-06T10:22:51.910Z,67.29
2023-05-06T10:23:51.888Z,68.49
2023-05-06T10:24:51.913Z,69.19
2023-05-06T10:25:51.884Z,67.02
2023-05-06T10:26:51.839Z,68.22
2023-05-06T10:27:51.859Z,67.72
2023-05-06T10:28:51.815Z,64.22
2023-05-06T10:29:51.835Z,63.92
2023-05-06T10:30:51.804Z,64.72
2023-05-06T10:31:51.803Z,67.22
2023-05-06T10:32:51.771Z,66.42
2023-05-06T10:33:51.761Z,65.82
2023-05-06T10:34:51.728Z,65.78
2023-05-06T10:35:51.806Z,67.19
2023-05-06T10:36:51.682Z,68.69
2023-05-06T10:37:51.714Z,67.09
2023-05-06T10:38:51.741Z,67.42
2023-05-06T10:39:51.682Z,67.02
2023-05-06T10:40:51.669Z,66.22
2023-05-06T10:41:51.699Z,68.32
2023-05-06T10:42:51.616Z,67.52
2023-05-06T10:43:51.633Z,64.51
2023-05-06T10:44:51.584Z,67.62
2023-05-06T10:45:51.639Z,65.25
2023-05-06T10:46:51.579Z,65.78
2023-05-06T10:47:51.737Z,63.90
2023-05-06T10:48:51.537Z,64.74
2023-05-06T10:49:51.548Z,69.26
2023-05-06T10:50:51.541Z,66.35
2023-05-06T10:51:51.553Z,67.05
2023-05-06T10:52:51.481Z,66.61
2023-05-06T10:53:51.515Z,65.41
2023-05-06T10:54:51.465Z,64.68
2023-05-06T10:55:51.488Z,66.48
2023-05-06T10:56:51.452Z,64.54
2023-05-06T10:57:51.462Z,66.55
2023-05-06T10:58:51.431Z,60.47
2023-05-06T10:59:51.426Z,60.97
2023-05-06T11:00:51.465Z,60.53
2023-05-06T11:01:51.391Z,61.64
2023-05-06T11:02:51.479Z,61.94
2023-05-06T11:03:51.365Z,61.51
2023-05-06T11:04:51.356Z,64.15
2023-05-06T11:05:51.421Z,65.35
2023-05-06T11:06:51.301Z,65.12
2023-05-06T11:07:51.342Z,62.31
2023-05-06T11:08:51.276Z,62.88
2023-05-06T11:09:51.292Z,63.39
2023-05-06T11:10:51.261Z,60.88
2023-05-06T11:11:51.285Z,63.42
2023-05-06T11:12:51.338Z,65.12
2023-05-06T11:13:51.250Z,65.52
2023-05-06T11:14:51.360Z,63.51
2023-05-06T11:15:51.206Z,64.12
2023-05-06T11:16:51.338Z,65.01
2023-05-06T11:17:51.228Z,65.82
2023-05-06T11:18:51.183Z,66.32
2023-05-06T11:19:51.172Z,65.42
2023-05-06T11:20:51.151Z,68.42
2023-05-06T11:21:51.139Z,65.92
2023-05-06T11:22:51.109Z,64.42
2023-05-06T11:23:51.115Z,64.81
2023-05-06T11:24:51.131Z,61.21
2023-05-06T11:25:51.084Z,62.01
2023-05-06T11:26:51.042Z,62.21
2023-05-06T11:27:51.141Z,62.21
2023-05-06T11:28:51.032Z,62.31
2023-05-06T11:29:51.132Z,63.11
2023-05-06T11:30:51.051Z,60.81
2023-05-06T11:31:51.233Z,61.01
2023-05-06T11:32:51.083Z,63.51
2023-05-06T11:33:51.006Z,64.22
2023-05-06T11:34:50.988Z,63.71
2023-05-06T11:35:50.954Z,61.61
2023-05-06T11:36:50.926Z,61.31
2023-05-06T11:37:51.013Z,64.69
2023-05-06T11:38:50.877Z,62.28
2023-05-06T11:39:50.912Z,67.49
2023-05-06T11:40:51.412Z,61.18
2023-05-06T11:41:50.914Z,59.98
2023-05-06T11:42:50.864Z,60.78
2023-05-06T11:43:50.891Z,60.58
2023-05-06T11:44:50.893Z,56.77
2023-05-06T11:45:50.865Z,58.98
2023-05-06T11:46:51.000Z,59.68
2023-05-06T11:47:50.796Z,59.95
2023-05-06T11:48:50.820Z,57.65
2023-05-06T11:49:50.815Z,59.05
2023-05-06T11:50:50.793Z,60.55
2023-05-06T11:51:50.777Z,59.38
2023-05-06T11:52:50.707Z,60.48
2023-05-06T11:53:50.728Z,57.87
2023-05-06T11:54:50.694Z,63.31
2023-05-06T11:55:50.712Z,60.71
2023-05-06T11:56:50.719Z,60.28
2023-05-06T11:57:50.690Z,60.08
2023-05-06T11:58:51.205Z,61.48
2023-05-06T11:59:50.654Z,59.78
2023-05-06T12:00:51.483Z,59.68
2023-05-06T12:01:50.635Z,62.48
2023-05-06T12:02:50.631Z,59.68
2023-05-06T12:03:50.742Z,60.55
2023-05-06T12:04:50.596Z,60.15
2023-05-06T12:05:50.577Z,58.35
2023-05-06T12:06:50.570Z,57.35
2023-05-06T12:07:50.640Z,60.32
2023-05-06T12:08:50.496Z,58.82
2023-05-06T12:09:50.532Z,59.92
2023-05-06T12:10:50.494Z,57.09
2023-05-06T12:11:50.521Z,60.39
2023-05-06T12:12:50.493Z,61.99
2023-05-06T12:13:50.495Z,55.05
2023-05-06T12:14:50.423Z,60.75
2023-05-06T12:15:50.678Z,61.45
2023-05-06T12:16:52.040Z,57.62
2023-05-06T12:17:50.464Z,56.32
2023-05-06T12:18:50.402Z,58.00
2023-05-06T12:19:50.403Z,54.10
2023-05-06T12:20:50.339Z,54.10
2023-05-06T12:21:50.380Z,56.20
2023-05-06T12:22:50.350Z,55.40
2023-05-06T12:23:50.361Z,53.37
2023-05-06T12:24:50.367Z,55.07
2023-05-06T12:25:50.387Z,54.06
2023-05-06T12:26:50.280Z,54.86
2023-05-06T12:27:50.279Z,56.49
2023-05-06T12:28:50.283Z,58.39
2023-05-06T12:29:50.256Z,54.49
2023-05-06T12:30:50.215Z,56.79
2023-05-06T12:31:50.255Z,56.99
2023-05-06T12:32:50.250Z,57.46
2023-05-06T12:33:50.318Z,60.66
2023-05-06T12:34:50.336Z,61.16
2023-05-06T12:35:50.303Z,60.36
2023-05-06T12:36:50.174Z,59.66
2023-05-06T12:37:50.174Z,57.87
2023-05-06T12:38:50.222Z,56.20
2023-05-06T12:39:50.206Z,57.67
2023-05-06T12:40:50.103Z,57.17
2023-05-06T12:41:50.118Z,55.24
2023-05-06T12:42:50.072Z,56.14
2023-05-06T12:43:50.105Z,57.67
2023-05-06T12:44:50.104Z,58.67
2023-05-06T12:45:50.112Z,57.07
2023-05-06T12:46:50.029Z,56.87
2023-05-06T12:47:50.169Z,56.04
2023-05-06T12:48:49.987Z,57.14
2023-05-06T12:49:50.033Z,63.36
2023-05-06T12:50:49.976Z,57.89
2023-05-06T12:51:50.027Z,61.09